Aérodrome :
LOGIN :

S'inscrire | Disclaimer

   EN    FR    IT 

 










Légende :    VFR   VFR Marginal   IFR   IFR Intensif   IFR Très Intensif
Visi : 
Plafond : 
>= 8 km
>= 3000ft
5 à 8 km
1000 à 3000 ft
1500m à 5 km
500 à 1000 ft
800 à 1500m
200 à 500 ft
< 800m
< 200 ft
Symboles :   Orages  Brouillard  Fortes neiges  Fortes précipitations  Vent > 20 kt
SIGMETs :   Divers  Orages  Givrage  Turbulence  Onde Orograph.  Cendres Volcan.






- Altitude de l'aérodrome : 1 ft


EGCK - Caernarfon

DERNIER METAR :
  • 250420Z AUTO 18010KT 9999 -RA BKN006/// OVC014/// 07/06 Q1017 RERA

METARs EXPIRÉS :
  • 250350Z AUTO 18010KT 8000 -RA OVC006/// 07/06 Q1017
  • 250320Z AUTO 17011KT 9999 -RA BKN006/// OVC015/// 07/06 Q1017
  • 250250Z AUTO 17011KT 9999 OVC021/// 07/06 Q1018
  • 250220Z AUTO 18010KT 9999 OVC021/// 07/05 Q1018
  • 250150Z AUTO 18009KT 9999 OVC021/// 07/05 Q1018

TAF TAF EGCK
Valide du 25 à 03h jusqu'au 25 à 12h UTC


250158Z 2503/2512 19008KT 9999 SCT010 BKN020
TEMPO 2503/2512 8000 BKN010
PROB30
TEMPO 2503/2509 4000 -DZ BKN006



MET'MAP, la Météo Aéronautique d'un coup d'oeil ! - Copyright ORBIFLY Décembre 2007 - Disclaimer

ORBIFLY MET'MAP TEAM :

Programmation & Développement : Alexandra Zaïnal
Sur une idée originale de : Baudouin d'Aumeries
Assistance à la programmation : Marc-Olivier Méhu
Soutien technique & logistique : Manuel Goepfert

Contact : metmap@orbifly.com




SOURCES & CREDITS :

   NOAA